createdAt,value
2022-08-27T00:01:36.834Z,20.38
2022-08-27T00:04:03.922Z,20.38
2022-08-27T00:06:31.010Z,20.36
2022-08-27T00:08:58.345Z,20.42
2022-08-27T00:11:28.195Z,20.35
2022-08-27T00:13:56.629Z,20.34
2022-08-27T00:16:24.504Z,20.36
2022-08-27T00:18:51.922Z,20.37
2022-08-27T00:21:18.898Z,20.31
2022-08-27T00:23:45.748Z,20.31
2022-08-27T00:26:14.360Z,20.30
2022-08-27T00:28:42.996Z,20.27
2022-08-27T00:31:12.170Z,20.28
2022-08-27T00:33:39.637Z,20.28
2022-08-27T00:36:06.453Z,20.29
2022-08-27T00:38:33.866Z,20.27
2022-08-27T00:41:01.356Z,20.29
2022-08-27T00:43:32.053Z,20.22
2022-08-27T00:46:05.250Z,20.23
2022-08-27T00:48:36.310Z,20.19
2022-08-27T00:51:04.482Z,20.16
2022-08-27T00:53:33.413Z,20.17
2022-08-27T00:56:15.746Z,20.14
2022-08-27T00:58:46.429Z,20.25
2022-08-27T01:01:17.604Z,20.14
2022-08-27T01:03:48.106Z,20.16
2022-08-27T01:06:16.997Z,20.09
2022-08-27T01:08:53.734Z,20.15
2022-08-27T01:11:21.032Z,20.07
2022-08-27T01:13:58.861Z,20.05
2022-08-27T01:16:32.842Z,20.08
2022-08-27T01:19:00.987Z,20.05
2022-08-27T01:21:53.571Z,20.08
2022-08-27T01:24:37.005Z,19.98
2022-08-27T01:27:13.392Z,19.91
2022-08-27T01:29:42.495Z,19.89
2022-08-27T01:32:24.971Z,19.82
2022-08-27T01:34:52.648Z,19.80
2022-08-27T01:37:23.973Z,19.76
2022-08-27T01:39:55.329Z,19.73
2022-08-27T01:42:35.893Z,19.76
2022-08-27T01:45:08.411Z,19.76
2022-08-27T01:47:36.253Z,19.78
2022-08-27T01:50:13.319Z,19.73
2022-08-27T01:52:40.373Z,19.71
2022-08-27T01:55:09.441Z,19.63
2022-08-27T01:57:36.322Z,19.61
2022-08-27T02:00:07.221Z,19.63
2022-08-27T02:02:33.952Z,19.59
2022-08-27T02:05:00.877Z,19.58
2022-08-27T02:07:27.687Z,19.56
2022-08-27T02:09:54.468Z,19.58
2022-08-27T02:12:21.276Z,19.63
2022-08-27T02:14:48.396Z,19.55
2022-08-27T02:17:15.297Z,19.48
2022-08-27T02:19:42.353Z,19.47
2022-08-27T02:22:09.131Z,19.47
2022-08-27T02:24:35.864Z,19.48
2022-08-27T02:27:02.601Z,19.46
2022-08-27T02:29:29.380Z,19.44
2022-08-27T02:31:56.130Z,19.41
2022-08-27T02:34:23.341Z,19.44
2022-08-27T02:36:50.241Z,19.44
2022-08-27T02:39:17.008Z,19.50
2022-08-27T02:41:43.779Z,19.60
2022-08-27T02:44:11.358Z,19.56
2022-08-27T02:46:41.804Z,19.50
2022-08-27T02:49:09.540Z,19.47
2022-08-27T02:51:36.980Z,19.43
2022-08-27T02:54:04.237Z,19.46
2022-08-27T02:56:31.154Z,19.51
2022-08-27T02:58:59.296Z,19.44
2022-08-27T03:01:26.727Z,19.40
2022-08-27T03:03:53.553Z,19.37
2022-08-27T03:06:20.281Z,19.34
2022-08-27T03:08:52.574Z,19.36
2022-08-27T03:11:23.149Z,19.26
2022-08-27T03:13:50.647Z,19.24
2022-08-27T03:16:18.099Z,19.21
2022-08-27T03:18:45.183Z,19.12
2022-08-27T03:21:18.128Z,19.07
2022-08-27T03:23:45.584Z,19.14
2022-08-27T03:26:12.748Z,19.01
2022-08-27T03:28:39.554Z,19.00
2022-08-27T03:31:13.379Z,18.94
2022-08-27T03:33:41.197Z,18.92
2022-08-27T03:36:08.826Z,18.91
2022-08-27T03:38:36.399Z,18.90
2022-08-27T03:41:04.399Z,18.83
2022-08-27T03:43:31.547Z,18.96
2022-08-27T03:46:01.623Z,18.81
2022-08-27T03:48:30.612Z,18.87
2022-08-27T03:50:57.506Z,18.87
2022-08-27T03:53:24.318Z,18.73
2022-08-27T03:55:51.165Z,18.74
2022-08-27T03:58:19.038Z,18.68
2022-08-27T04:00:46.042Z,18.74
2022-08-27T04:03:14.921Z,18.68
2022-08-27T04:05:42.622Z,18.68
2022-08-27T04:08:13.510Z,18.74
2022-08-27T04:10:41.185Z,18.74
2022-08-27T04:13:08.039Z,18.69
2022-08-27T04:15:34.785Z,18.72
2022-08-27T04:18:07.665Z,18.64
2022-08-27T04:20:35.816Z,18.64
2022-08-27T04:23:03.770Z,18.67
2022-08-27T04:25:30.959Z,18.58
2022-08-27T04:27:58.185Z,18.59
2022-08-27T04:30:25.188Z,18.58
2022-08-27T04:32:52.029Z,18.56
2022-08-27T04:35:18.812Z,18.53
2022-08-27T04:37:45.634Z,18.63
2022-08-27T04:40:12.514Z,18.69
2022-08-27T04:42:39.290Z,18.66
2022-08-27T04:45:06.526Z,18.64
2022-08-27T04:47:33.318Z,18.61
2022-08-27T04:50:00.290Z,18.55
2022-08-27T04:52:28.495Z,18.64
2022-08-27T04:54:55.349Z,18.58
2022-08-27T04:57:22.247Z,18.62
2022-08-27T04:59:49.489Z,18.60
2022-08-27T05:02:16.606Z,18.51
2022-08-27T05:04:43.419Z,18.52
2022-08-27T05:07:10.770Z,18.57
2022-08-27T05:09:37.960Z,18.54
2022-08-27T05:12:04.854Z,18.47
2022-08-27T05:14:32.927Z,18.49
2022-08-27T05:17:00.336Z,18.52
2022-08-27T05:19:27.809Z,18.53
2022-08-27T05:21:54.691Z,18.54
2022-08-27T05:24:21.947Z,18.61
2022-08-27T05:26:50.065Z,18.56
2022-08-27T05:29:17.684Z,18.55
2022-08-27T05:31:44.431Z,18.56
2022-08-27T05:34:15.411Z,18.61
2022-08-27T05:36:49.059Z,18.53
2022-08-27T05:39:17.017Z,18.47
2022-08-27T05:41:43.759Z,18.48
2022-08-27T05:46:57.300Z,18.39
2022-08-27T05:49:24.227Z,18.43
2022-08-27T05:51:51.190Z,18.48
2022-08-27T05:54:21.272Z,18.51
2022-08-27T05:56:51.828Z,18.39
2022-08-27T05:59:37.556Z,18.40
2022-08-27T06:02:06.206Z,18.60
2022-08-27T06:04:33.595Z,18.63
2022-08-27T06:07:00.411Z,18.55
2022-08-27T06:09:29.546Z,18.54
2022-08-27T06:11:58.099Z,18.68
2022-08-27T06:14:25.225Z,18.76
2022-08-27T06:16:52.354Z,18.60
2022-08-27T06:19:19.489Z,18.40
2022-08-27T06:21:46.395Z,18.42
2022-08-27T06:24:27.379Z,18.58
2022-08-27T06:26:54.170Z,18.44
2022-08-27T06:29:25.156Z,18.40
2022-08-27T06:31:53.067Z,18.60
2022-08-27T06:34:19.828Z,18.64
2022-08-27T06:36:46.667Z,18.51
2022-08-27T06:39:15.493Z,18.60
2022-08-27T06:41:44.319Z,18.65
2022-08-27T06:44:12.714Z,18.70
2022-08-27T06:46:40.133Z,18.71
2022-08-27T06:49:08.181Z,18.74
2022-08-27T06:51:37.423Z,18.71
2022-08-27T06:54:07.777Z,18.65
2022-08-27T06:56:35.672Z,18.56
2022-08-27T06:59:06.317Z,18.50
2022-08-27T07:01:40.937Z,18.55
2022-08-27T07:04:11.715Z,18.52
2022-08-27T07:06:39.405Z,18.63
2022-08-27T07:09:07.308Z,18.59
2022-08-27T07:11:34.536Z,18.65
2022-08-27T07:14:02.243Z,18.62
2022-08-27T07:16:30.726Z,18.53
2022-08-27T07:19:03.737Z,18.55
2022-08-27T07:21:31.231Z,18.53
2022-08-27T07:23:59.756Z,18.62
2022-08-27T07:26:26.771Z,18.65
2022-08-27T07:28:53.637Z,18.87
2022-08-27T07:31:23.263Z,18.74
2022-08-27T07:33:52.456Z,18.90
2022-08-27T07:36:21.762Z,18.90
2022-08-27T07:38:56.953Z,18.77
2022-08-27T07:41:31.896Z,18.97
2022-08-27T07:44:20.989Z,18.84
2022-08-27T07:46:56.538Z,18.88
2022-08-27T07:49:23.637Z,18.91
2022-08-27T07:51:52.728Z,18.93
2022-08-27T07:54:22.938Z,18.81
2022-08-27T07:56:55.097Z,18.80
2022-08-27T07:59:24.250Z,18.97
2022-08-27T08:01:51.835Z,19.06
2022-08-27T08:04:20.508Z,19.10
2022-08-27T08:06:48.244Z,18.86
2022-08-27T08:09:15.649Z,19.18
2022-08-27T08:11:42.537Z,19.33
2022-08-27T08:14:09.316Z,19.40
2022-08-27T08:16:36.144Z,19.04
2022-08-27T08:19:03.031Z,19.13
2022-08-27T08:21:29.852Z,19.19
2022-08-27T08:23:56.832Z,19.65
2022-08-27T08:26:24.053Z,19.30
2022-08-27T08:28:50.802Z,19.18
2022-08-27T08:31:18.250Z,19.16
2022-08-27T08:33:46.358Z,19.13
2022-08-27T08:36:15.576Z,19.24
2022-08-27T08:38:43.987Z,19.32
2022-08-27T08:41:48.632Z,19.20
2022-08-27T08:44:31.064Z,19.25
2022-08-27T08:47:15.632Z,19.21
2022-08-27T08:49:49.302Z,19.10
2022-08-27T08:52:31.291Z,19.18
2022-08-27T08:55:14.132Z,19.12
2022-08-27T08:57:52.215Z,19.38
2022-08-27T09:00:19.659Z,19.33
2022-08-27T09:02:54.734Z,19.67
2022-08-27T09:05:24.085Z,19.65
2022-08-27T09:08:30.963Z,19.48
2022-08-27T09:11:21.840Z,19.23
2022-08-27T09:13:53.343Z,19.56
2022-08-27T09:16:20.342Z,19.53
2022-08-27T09:18:51.168Z,19.47
2022-08-27T09:21:31.427Z,19.64
2022-08-27T09:24:02.275Z,19.48
2022-08-27T09:26:31.768Z,19.40
2022-08-27T09:29:19.960Z,19.77
2022-08-27T09:31:57.678Z,20.16
2022-08-27T09:34:27.308Z,20.31
2022-08-27T09:37:06.129Z,20.32
2022-08-27T09:40:13.434Z,19.86
2022-08-27T09:42:57.353Z,20.10
2022-08-27T09:45:32.578Z,19.80
2022-08-27T09:48:10.098Z,19.89
2022-08-27T09:50:43.924Z,19.66
2022-08-27T09:53:25.495Z,20.08
2022-08-27T09:56:01.768Z,19.89
2022-08-27T09:58:33.136Z,19.79
2022-08-27T10:01:21.575Z,19.75
2022-08-27T10:03:49.546Z,19.91
2022-08-27T10:06:31.128Z,19.79
2022-08-27T10:09:07.337Z,19.96
2022-08-27T10:12:06.343Z,20.00
2022-08-27T10:14:40.642Z,19.89
2022-08-27T10:17:21.499Z,19.89
2022-08-27T10:20:10.166Z,20.16
2022-08-27T10:22:43.136Z,20.40
2022-08-27T10:25:28.671Z,20.31
2022-08-27T10:28:10.797Z,19.83
2022-08-27T10:30:59.542Z,19.95
2022-08-27T10:33:59.287Z,20.03
2022-08-27T10:36:45.896Z,20.43
2022-08-27T10:39:22.738Z,20.72
2022-08-27T10:42:05.486Z,20.74
2022-08-27T10:44:51.191Z,20.73
2022-08-27T10:47:28.145Z,20.76
2022-08-27T10:50:28.569Z,20.49
2022-08-27T10:53:02.350Z,20.26
2022-08-27T10:55:43.010Z,20.42
2022-08-27T10:58:28.853Z,20.45
2022-08-27T11:01:31.198Z,20.87
2022-08-27T11:04:22.471Z,21.32
2022-08-27T11:06:58.914Z,20.84
2022-08-27T11:09:37.805Z,21.15
2022-08-27T11:12:14.577Z,21.24
2022-08-27T11:14:50.740Z,21.55
2022-08-27T11:17:32.175Z,21.92
2022-08-27T11:20:11.949Z,22.74
2022-08-27T11:23:04.887Z,22.24
2022-08-27T11:26:02.348Z,22.94
2022-08-27T11:28:37.522Z,22.91
2022-08-27T11:31:28.989Z,22.77
2022-08-27T11:34:05.530Z,22.69
2022-08-27T11:36:54.425Z,22.80
2022-08-27T11:39:51.213Z,22.98
2022-08-27T11:42:36.189Z,22.69
2022-08-27T11:45:21.716Z,22.73
2022-08-27T11:47:57.008Z,22.76
2022-08-27T11:50:25.688Z,22.85
2022-08-27T11:53:08.356Z,23.25
2022-08-27T11:55:38.168Z,23.17
2022-08-27T11:58:07.971Z,23.79
2022-08-27T12:00:39.104Z,23.28
2022-08-27T12:03:09.463Z,23.79
2022-08-27T12:05:44.765Z,24.48
2022-08-27T12:08:38.046Z,24.27
2022-08-27T12:11:23.778Z,24.59
2022-08-27T12:14:32.380Z,24.31
2022-08-27T12:17:12.226Z,23.97
2022-08-27T12:19:44.906Z,24.30
2022-08-27T12:23:08.116Z,24.81
2022-08-27T12:25:35.050Z,24.45
2022-08-27T12:28:05.263Z,24.27
2022-08-27T12:30:35.783Z,24.04
2022-08-27T12:33:42.317Z,24.12
2022-08-27T12:36:15.673Z,24.39
2022-08-27T12:38:51.178Z,24.70
2022-08-27T12:41:30.468Z,24.39
2022-08-27T12:44:33.496Z,24.19
2022-08-27T12:47:03.314Z,24.41
2022-08-27T12:49:39.710Z,24.26
2022-08-27T12:52:25.366Z,24.03
2022-08-27T12:55:17.654Z,24.75
2022-08-27T12:58:15.851Z,25.65
2022-08-27T13:01:10.446Z,24.97
2022-08-27T13:03:40.677Z,25.34
2022-08-27T13:06:26.193Z,25.10
2022-08-27T13:08:54.770Z,25.16
2022-08-27T13:11:45.788Z,24.24
2022-08-27T13:14:20.840Z,24.85
2022-08-27T13:16:51.646Z,24.16
2022-08-27T13:19:22.076Z,24.29
2022-08-27T13:21:51.060Z,24.57
2022-08-27T13:24:45.139Z,24.86
2022-08-27T13:27:12.335Z,25.03
2022-08-27T13:29:41.749Z,25.01
2022-08-27T13:32:09.151Z,25.49
2022-08-27T13:34:39.021Z,25.28
2022-08-27T13:37:20.976Z,25.05
2022-08-27T13:39:53.045Z,25.23
2022-08-27T13:42:20.316Z,24.56
2022-08-27T13:44:48.210Z,24.77
2022-08-27T13:47:17.531Z,24.25
2022-08-27T13:49:44.467Z,24.80
2022-08-27T13:52:32.282Z,25.10
2022-08-27T13:55:08.254Z,25.16
2022-08-27T13:57:49.957Z,24.70
2022-08-27T14:00:27.064Z,24.97
2022-08-27T14:02:56.298Z,24.82
2022-08-27T14:05:23.174Z,25.10
2022-08-27T14:07:54.638Z,24.97
2022-08-27T14:10:38.291Z,25.20
2022-08-27T14:13:15.646Z,25.38
2022-08-27T14:15:45.670Z,24.87
2022-08-27T14:18:48.034Z,25.07
2022-08-27T14:21:15.485Z,25.38
2022-08-27T14:23:42.280Z,25.30
2022-08-27T14:26:09.364Z,25.29
2022-08-27T14:28:36.948Z,25.33
2022-08-27T14:31:03.848Z,25.50
2022-08-27T14:33:31.445Z,25.41
2022-08-27T14:35:58.251Z,25.00
2022-08-27T14:38:31.583Z,25.23
2022-08-27T14:40:58.638Z,25.06
2022-08-27T14:43:25.795Z,24.92
2022-08-27T14:45:53.648Z,24.59
2022-08-27T14:48:28.842Z,24.79
2022-08-27T14:50:56.879Z,24.71
2022-08-27T14:53:24.253Z,24.86
2022-08-27T14:55:52.020Z,25.04
2022-08-27T14:58:20.550Z,24.90
2022-08-27T15:00:47.566Z,24.89
2022-08-27T15:03:14.524Z,24.87
2022-08-27T15:05:41.271Z,24.95
2022-08-27T15:08:13.142Z,24.90
2022-08-27T15:10:40.881Z,24.53
2022-08-27T15:13:09.566Z,24.17
2022-08-27T15:15:36.492Z,24.65
2022-08-27T15:18:03.693Z,24.66
2022-08-27T15:20:30.813Z,24.68
2022-08-27T15:22:58.783Z,24.64
2022-08-27T15:25:25.743Z,24.64
2022-08-27T15:27:52.615Z,24.55
2022-08-27T15:30:26.335Z,24.18
2022-08-27T15:32:53.453Z,24.33
2022-08-27T15:35:26.515Z,24.20
2022-08-27T15:37:55.659Z,24.23
2022-08-27T15:40:24.151Z,24.42
2022-08-27T15:42:56.992Z,24.10
2022-08-27T15:45:25.728Z,24.04
2022-08-27T15:47:56.019Z,23.80
2022-08-27T15:50:23.007Z,23.97
2022-08-27T15:52:54.918Z,23.66
2022-08-27T15:55:24.835Z,23.79
2022-08-27T15:57:51.871Z,23.99
2022-08-27T16:00:19.189Z,24.01
2022-08-27T16:02:46.461Z,23.79
2022-08-27T16:05:17.058Z,23.78
2022-08-27T16:07:44.587Z,23.53
2022-08-27T16:10:12.449Z,23.66
2022-08-27T16:12:39.093Z,23.62
2022-08-27T16:15:07.104Z,23.65
2022-08-27T16:17:35.622Z,23.72
2022-08-27T16:20:02.567Z,23.59
2022-08-27T16:22:29.351Z,23.54
2022-08-27T16:24:56.055Z,23.43
2022-08-27T16:27:23.103Z,23.51
2022-08-27T16:29:49.858Z,23.37
2022-08-27T16:32:18.927Z,23.24
2022-08-27T16:34:47.603Z,23.19
2022-08-27T16:37:24.096Z,22.80
2022-08-27T16:39:51.053Z,22.94
2022-08-27T16:42:18.058Z,22.95
2022-08-27T16:44:44.933Z,22.87
2022-08-27T16:47:11.701Z,22.70
2022-08-27T16:49:56.987Z,22.69
2022-08-27T16:52:24.040Z,22.70
2022-08-27T16:54:51.934Z,22.73
2022-08-27T16:57:19.335Z,22.77
2022-08-27T16:59:46.261Z,22.51
2022-08-27T17:02:30.319Z,22.43
2022-08-27T17:05:01.472Z,22.41
2022-08-27T17:07:48.318Z,22.30
2022-08-27T17:10:19.742Z,22.21
2022-08-27T17:12:47.756Z,22.15
2022-08-27T17:15:18.052Z,22.01
2022-08-27T17:17:46.032Z,22.02
2022-08-27T17:20:15.143Z,21.98
2022-08-27T17:22:42.248Z,21.82
2022-08-27T17:25:10.588Z,21.78
2022-08-27T17:27:37.368Z,21.70
2022-08-27T17:30:05.256Z,21.62
2022-08-27T17:32:36.446Z,21.49
2022-08-27T17:35:06.231Z,21.37
2022-08-27T17:37:34.184Z,21.25
2022-08-27T17:40:01.294Z,21.20
2022-08-27T17:42:29.577Z,21.19
2022-08-27T17:44:56.276Z,21.08
2022-08-27T17:47:24.790Z,20.97
2022-08-27T17:49:52.094Z,20.94
2022-08-27T17:52:18.911Z,20.86
2022-08-27T17:54:48.488Z,20.82
2022-08-27T17:57:24.931Z,20.69
2022-08-27T17:59:53.603Z,20.57
2022-08-27T18:02:44.159Z,20.55
2022-08-27T18:05:13.315Z,20.47
2022-08-27T18:07:42.217Z,20.38
2022-08-27T18:10:11.140Z,20.28
2022-08-27T18:12:39.750Z,20.22
2022-08-27T18:15:20.918Z,20.16
2022-08-27T18:17:48.943Z,19.93
2022-08-27T18:20:21.165Z,19.80
2022-08-27T18:22:49.132Z,19.77
2022-08-27T18:25:18.355Z,19.72
2022-08-27T18:27:46.356Z,19.63
2022-08-27T18:30:13.462Z,19.56
2022-08-27T18:32:40.672Z,19.46
2022-08-27T18:35:21.502Z,19.39
2022-08-27T18:37:48.392Z,19.32
2022-08-27T18:40:17.834Z,19.28
2022-08-27T18:42:45.456Z,19.20
2022-08-27T18:45:18.055Z,19.16
2022-08-27T18:47:45.520Z,19.12
2022-08-27T18:50:17.414Z,19.07
2022-08-27T18:52:49.753Z,19.00
2022-08-27T18:55:20.658Z,18.87
2022-08-27T18:57:47.446Z,18.83
2022-08-27T19:00:16.236Z,18.83
2022-08-27T19:02:43.286Z,18.77
2022-08-27T19:05:11.540Z,18.75
2022-08-27T19:07:38.718Z,18.73
2022-08-27T19:10:07.022Z,18.69
2022-08-27T19:12:33.824Z,18.58
2022-08-27T19:15:03.911Z,18.50
2022-08-27T19:17:34.938Z,18.48
2022-08-27T19:20:02.638Z,18.37
2022-08-27T19:22:35.508Z,18.32
2022-08-27T19:25:02.243Z,18.31
2022-08-27T19:27:30.483Z,18.25
2022-08-27T19:29:58.896Z,18.20
2022-08-27T19:32:25.864Z,18.13
2022-08-27T19:34:53.242Z,18.08
2022-08-27T19:37:26.847Z,18.11
2022-08-27T19:39:53.609Z,18.06
2022-08-27T19:42:20.664Z,18.00
2022-08-27T19:44:47.618Z,17.93
2022-08-27T19:47:16.952Z,17.94
2022-08-27T19:49:49.771Z,17.90
2022-08-27T19:52:16.658Z,17.86
2022-08-27T19:55:09.824Z,17.77
2022-08-27T19:57:30.215Z,17.77
2022-08-27T19:59:57.046Z,17.68
2022-08-27T20:02:24.009Z,17.64
2022-08-27T20:05:14.313Z,17.62
2022-08-27T20:07:38.015Z,17.47
2022-08-27T20:10:08.314Z,17.44
2022-08-27T20:12:36.602Z,17.36
2022-08-27T20:15:05.367Z,17.31
2022-08-27T20:17:32.538Z,17.29
2022-08-27T20:19:59.792Z,17.25
2022-08-27T20:22:26.969Z,17.19
2022-08-27T20:24:53.788Z,17.16
2022-08-27T20:27:20.611Z,17.09
2022-08-27T20:29:47.382Z,16.93
2022-08-27T20:32:14.160Z,16.94
2022-08-27T20:34:41.307Z,16.84
2022-08-27T20:37:08.314Z,16.80
2022-08-27T20:39:35.020Z,16.73
2022-08-27T20:42:01.772Z,16.73
2022-08-27T20:44:29.016Z,16.66
2022-08-27T20:46:59.765Z,16.61
2022-08-27T20:49:28.018Z,16.62
2022-08-27T20:52:03.394Z,16.62
2022-08-27T20:54:31.886Z,16.66
2022-08-27T20:56:59.004Z,16.58
2022-08-27T20:59:44.803Z,16.54
2022-08-27T21:02:13.537Z,16.49
2022-08-27T21:04:43.472Z,16.48
2022-08-27T21:07:10.174Z,16.47
2022-08-27T21:09:55.570Z,16.38
2022-08-27T21:12:26.361Z,16.36
2022-08-27T21:14:55.744Z,16.30
2022-08-27T21:17:24.732Z,16.26
2022-08-27T21:19:51.751Z,16.28
2022-08-27T21:22:19.311Z,16.26
2022-08-27T21:24:48.778Z,16.19
2022-08-27T21:27:17.261Z,16.18
2022-08-27T21:29:46.718Z,16.17
2022-08-27T21:32:14.568Z,16.09
2022-08-27T21:34:42.068Z,16.08
2022-08-27T21:37:11.610Z,16.08
2022-08-27T21:39:40.027Z,16.00
2022-08-27T21:42:08.042Z,15.98
2022-08-27T21:44:35.385Z,15.95
2022-08-27T21:47:03.708Z,15.89
2022-08-27T21:49:32.696Z,15.86
2022-08-27T21:52:00.770Z,15.86
2022-08-27T21:54:27.992Z,15.83
2022-08-27T21:56:54.878Z,15.75
2022-08-27T21:59:21.943Z,15.72
2022-08-27T22:01:59.180Z,15.68
2022-08-27T22:04:31.723Z,15.66
2022-08-27T22:06:58.901Z,15.67
2022-08-27T22:09:27.071Z,15.70
2022-08-27T22:11:54.226Z,15.72
2022-08-27T22:14:20.850Z,15.62
2022-08-27T22:16:47.578Z,15.63
2022-08-27T22:19:14.231Z,15.62
2022-08-27T22:21:41.995Z,15.57
2022-08-27T22:24:08.896Z,15.56
2022-08-27T22:26:35.622Z,15.53
2022-08-27T22:29:03.839Z,15.51
2022-08-27T22:31:32.617Z,15.49
2022-08-27T22:34:00.540Z,15.48
2022-08-27T22:36:27.812Z,15.47
2022-08-27T22:38:54.784Z,15.49
2022-08-27T22:41:30.439Z,15.46
2022-08-27T22:43:59.657Z,15.42
2022-08-27T22:46:26.498Z,15.43
2022-08-27T22:48:53.215Z,15.38
2022-08-27T22:51:21.263Z,15.20
2022-08-27T22:53:48.122Z,15.14
2022-08-27T22:56:15.047Z,15.14
2022-08-27T22:58:46.150Z,15.12
2022-08-27T23:01:17.988Z,15.07
2022-08-27T23:03:44.899Z,15.02
2022-08-27T23:06:11.912Z,15.04
2022-08-27T23:08:38.613Z,15.04
2022-08-27T23:11:05.479Z,15.03
2022-08-27T23:13:33.439Z,15.06
2022-08-27T23:16:02.953Z,15.07
2022-08-27T23:18:30.073Z,15.11
2022-08-27T23:20:56.778Z,15.17
2022-08-27T23:23:24.391Z,15.18
2022-08-27T23:26:12.961Z,15.17
2022-08-27T23:28:40.909Z,15.18
2022-08-27T23:31:08.069Z,15.17
2022-08-27T23:33:34.807Z,15.18
2022-08-27T23:36:01.511Z,15.14
2022-08-27T23:38:28.441Z,15.14
2022-08-27T23:40:55.866Z,15.10
2022-08-27T23:43:22.679Z,15.10
2022-08-27T23:45:50.233Z,15.06
2022-08-27T23:48:16.954Z,15.04
2022-08-27T23:50:44.213Z,14.98
2022-08-27T23:53:12.022Z,15.00
2022-08-27T23:55:41.080Z,14.96
2022-08-27T23:58:09.012Z,14.91
